Time;durP1;ratioP1;P1;durP2;ratioP2;P2;SDS_P1;SDS_P2;PMS_P1;PMS_P2;Temp;Humidity;BMP_temperature;BMP_pressure;BME280_temperature;BME280_humidity;BME280_pressure;Samples;Min_cycle;Max_cycle;Signal;HPM_P1;HPM_P2
2021/05/07 00:00:35;;;;;;;11.07;7.13;;;7.80;73.60;;;;;;6246198;23;20012;-92
2021/05/07 00:03:00;;;;;;;13.02;8.63;;;7.80;73.70;;;;;;6248194;22;19988;-91
2021/05/07 00:05:26;;;;;;;14.15;8.57;;;7.80;73.80;;;;;;6248625;22;20015;-92
2021/05/07 00:07:52;;;;;;;8.90;6.25;;;7.70;73.90;;;;;;6249185;22;20008;-92
2021/05/07 00:10:18;;;;;;;10.20;6.15;;;7.70;73.60;;;;;;6246132;22;20027;-94
2021/05/07 00:12:44;;;;;;;9.38;5.50;;;7.70;72.80;;;;;;6225687;23;20128;-93
2021/05/07 00:15:11;;;;;;;10.75;6.50;;;7.80;71.80;;;;;;6223868;23;20087;-93
2021/05/07 00:17:37;;;;;;;11.10;7.15;;;8.00;72.00;;;;;;6255134;22;19992;-93
2021/05/07 00:20:04;;;;;;;12.57;6.63;;;8.10;72.30;;;;;;6225723;23;20035;-92
2021/05/07 00:22:30;;;;;;;7.78;5.47;;;8.10;71.70;;;;;;6222378;23;19996;-94
2021/05/07 00:24:56;;;;;;;9.75;6.32;;;8.10;71.20;;;;;;6222263;23;20442;-93
2021/05/07 00:27:21;;;;;;;10.20;6.13;;;8.10;71.60;;;;;;6222041;23;20038;-92
2021/05/07 00:29:47;;;;;;;10.00;6.68;;;8.10;71.60;;;;;;6222005;23;20019;-93
2021/05/07 00:32:13;;;;;;;11.43;6.70;;;8.00;71.80;;;;;;6221908;23;20016;-92
2021/05/07 00:34:39;;;;;;;11.25;6.38;;;8.00;71.80;;;;;;6222045;23;20015;-93
2021/05/07 00:37:05;;;;;;;10.07;6.93;;;7.90;71.70;;;;;;6221491;23;20000;-92
2021/05/07 00:39:31;;;;;;;7.95;6.40;;;7.90;72.10;;;;;;6248442;22;20458;-93
2021/05/07 00:42:03;;;;;;;11.65;7.25;;;7.80;72.30;;;;;;6248597;22;19996;-94
2021/05/07 00:44:33;;;;;;;12.23;7.63;;;7.80;72.40;;;;;;6221511;23;20046;-93
2021/05/07 00:47:05;;;;;;;10.32;7.57;;;7.70;72.40;;;;;;6248284;23;20067;-92
2021/05/07 00:49:38;;;;;;;15.05;8.35;;;7.70;72.60;;;;;;6221406;23;20000;-92
2021/05/07 00:52:05;;;;;;;12.23;7.90;;;7.60;72.60;;;;;;6221616;23;20424;-92
2021/05/07 00:54:35;;;;;;;13.30;7.57;;;7.60;72.70;;;;;;6221180;23;20059;-93
2021/05/07 00:57:02;;;;;;;9.50;7.03;;;7.60;73.00;;;;;;6247871;22;20004;-94
2021/05/07 00:59:28;;;;;;;13.77;8.23;;;7.60;73.10;;;;;;6247725;22;20008;-93
2021/05/07 01:01:54;;;;;;;10.32;6.85;;;7.50;73.20;;;;;;6221941;23;20008;-93
2021/05/07 01:04:20;;;;;;;10.48;7.82;;;7.50;73.40;;;;;;6221161;23;20008;-93
2021/05/07 01:06:46;;;;;;;9.25;6.93;;;7.40;73.60;;;;;;6221194;23;20004;-93
2021/05/07 01:09:12;;;;;;;12.98;8.00;;;7.40;73.60;;;;;;6221604;23;20011;-93
2021/05/07 01:11:39;;;;;;;12.40;7.80;;;7.40;73.70;;;;;;6221128;23;20008;-92
2021/05/07 01:14:05;;;;;;;11.43;6.90;;;7.40;73.80;;;;;;6248249;23;19992;-93
2021/05/07 01:16:32;;;;;;;11.55;7.75;;;7.30;74.00;;;;;;6221502;23;20051;-93
2021/05/07 01:18:59;;;;;;;12.30;7.43;;;7.30;74.10;;;;;;6221128;23;20447;-93
2021/05/07 01:21:26;;;;;;;11.60;7.03;;;7.20;74.20;;;;;;6221001;23;20009;-93
2021/05/07 01:23:52;;;;;;;12.32;7.82;;;7.20;74.30;;;;;;6221425;23;20447;-94
2021/05/07 01:26:18;;;;;;;11.27;7.38;;;7.20;74.30;;;;;;6249718;22;20004;-93
2021/05/07 01:28:44;;;;;;;14.18;9.18;;;7.10;74.30;;;;;;6222845;23;20008;-92
2021/05/07 01:31:09;;;;;;;13.90;8.20;;;7.10;74.40;;;;;;6222993;23;20012;-92
2021/05/07 01:33:36;;;;;;;10.57;7.35;;;7.10;74.40;;;;;;6223087;23;20004;-93
2021/05/07 01:36:01;;;;;;;10.18;6.90;;;7.10;74.40;;;;;;6223776;23;20010;-93
2021/05/07 01:38:27;;;;;;;11.65;8.98;;;7.10;74.40;;;;;;6223171;23;20071;-92
2021/05/07 01:40:53;;;;;;;12.70;8.88;;;7.10;74.50;;;;;;6223463;23;20066;-92
2021/05/07 01:43:20;;;;;;;11.43;7.72;;;7.00;74.40;;;;;;6222639;23;20467;-94
2021/05/07 01:45:47;;;;;;;12.45;7.60;;;7.00;74.40;;;;;;6222904;23;20021;-93
2021/05/07 01:48:14;;;;;;;12.43;8.05;;;7.00;74.30;;;;;;6222275;23;20000;-93
2021/05/07 01:50:42;;;;;;;12.07;8.48;;;7.00;74.30;;;;;;6249710;22;20042;-92
2021/05/07 01:53:09;;;;;;;11.85;7.03;;;7.00;74.30;;;;;;6223053;23;20007;-92
2021/05/07 01:55:37;;;;;;;9.82;7.15;;;7.00;74.20;;;;;;6222830;23;20030;-92
2021/05/07 01:58:05;;;;;;;11.52;6.85;;;7.00;74.30;;;;;;6249856;22;19992;-92
2021/05/07 02:00:31;;;;;;;9.90;7.22;;;7.00;74.40;;;;;;6223745;23;20012;-93
2021/05/07 02:03:02;;;;;;;12.07;7.78;;;6.90;74.40;;;;;;6223405;23;20000;-92
2021/05/07 02:05:31;;;;;;;10.57;7.18;;;6.90;74.50;;;;;;6222965;23;20008;-92
2021/05/07 02:07:57;;;;;;;11.00;8.05;;;6.80;74.50;;;;;;6222346;23;20130;-93
2021/05/07 02:10:25;;;;;;;11.98;8.32;;;6.80;74.60;;;;;;6222716;23;20008;-92
2021/05/07 02:12:52;;;;;;;10.00;7.28;;;6.70;74.70;;;;;;6249622;22;20087;-93
2021/05/07 02:15:19;;;;;;;11.48;7.60;;;6.70;75.00;;;;;;6223481;23;20009;-92
2021/05/07 02:17:47;;;;;;;10.00;6.82;;;6.70;75.10;;;;;;6222672;23;20000;-92
2021/05/07 02:20:14;;;;;;;10.27;6.45;;;6.60;75.10;;;;;;6222415;23;20057;-92
2021/05/07 02:22:41;;;;;;;12.02;7.28;;;6.60;75.80;;;;;;6249559;22;20312;-92
2021/05/07 02:25:08;;;;;;;10.60;7.18;;;6.60;75.60;;;;;;6223401;23;20081;-92
2021/05/07 02:27:33;;;;;;;10.93;6.82;;;6.60;75.50;;;;;;6222407;23;20079;-92
2021/05/07 02:29:59;;;;;;;12.13;6.93;;;6.60;75.90;;;;;;6223302;23;20051;-93
2021/05/07 02:32:25;;;;;;;10.05;7.70;;;6.60;76.00;;;;;;6222901;23;20520;-93
2021/05/07 02:34:51;;;;;;;11.10;7.35;;;6.60;76.50;;;;;;6223538;23;20443;-93
2021/05/07 02:37:16;;;;;;;10.32;7.70;;;6.60;76.40;;;;;;6222263;23;19996;-92
2021/05/07 02:39:42;;;;;;;14.57;9.05;;;6.60;76.30;;;;;;6222532;23;20001;-92
2021/05/07 02:42:08;;;;;;;13.70;9.43;;;6.60;76.90;;;;;;6222450;23;20043;-93
2021/05/07 02:44:34;;;;;;;13.63;8.82;;;6.60;76.70;;;;;;6222710;23;20001;-93
2021/05/07 02:47:05;;;;;;;12.68;7.35;;;6.60;76.80;;;;;;6222660;23;20000;-93
2021/05/07 02:49:32;;;;;;;8.68;6.65;;;6.60;76.50;;;;;;6222551;23;20078;-93
2021/05/07 02:51:58;;;;;;;9.45;6.38;;;6.60;76.50;;;;;;6222320;23;20019;-92
2021/05/07 02:54:24;;;;;;;8.57;6.45;;;6.70;76.60;;;;;;6223007;23;20008;-92
2021/05/07 02:56:50;;;;;;;9.38;6.47;;;6.70;76.50;;;;;;6221948;23;20005;-92
2021/05/07 02:59:16;;;;;;;10.15;5.88;;;6.80;76.40;;;;;;6223137;23;20015;-92
2021/05/07 03:01:42;;;;;;;8.43;5.78;;;6.80;76.30;;;;;;6224167;23;20008;-93
2021/05/07 03:04:08;;;;;;;9.25;5.93;;;6.90;76.20;;;;;;6224485;23;20107;-94
2021/05/07 03:06:34;;;;;;;10.57;7.03;;;6.90;76.20;;;;;;6223788;23;20004;-93
2021/05/07 03:09:01;;;;;;;10.25;6.10;;;7.00;76.00;;;;;;6223244;23;20000;-93
2021/05/07 03:11:26;;;;;;;11.80;6.57;;;7.10;76.00;;;;;;6249948;22;20075;-94
2021/05/07 03:13:53;;;;;;;8.50;5.63;;;7.20;75.70;;;;;;6222798;23;20016;-93
2021/05/07 03:16:21;;;;;;;9.13;6.25;;;7.30;75.50;;;;;;6222922;23;20082;-93
2021/05/07 03:18:50;;;;;;;10.55;6.65;;;7.30;75.30;;;;;;6223410;23;20015;-93
2021/05/07 03:21:17;;;;;;;10.43;6.20;;;7.40;75.10;;;;;;6222781;23;20095;-94
2021/05/07 03:23:43;;;;;;;9.55;5.97;;;7.50;74.90;;;;;;6222733;23;20007;-94
2021/05/07 03:26:09;;;;;;;12.77;6.00;;;7.60;74.80;;;;;;6223350;23;20004;-94
2021/05/07 03:28:37;;;;;;;7.07;5.88;;;7.70;74.60;;;;;;6223677;23;19997;-93
2021/05/07 03:31:03;;;;;;;10.20;6.60;;;7.80;74.60;;;;;;6224384;23;20428;-93
2021/05/07 03:33:28;;;;;;;8.70;6.30;;;7.90;74.40;;;;;;6222689;23;20000;-94
2021/05/07 03:35:54;;;;;;;10.13;6.10;;;8.00;74.20;;;;;;6221808;23;20000;-93
2021/05/07 03:38:20;;;;;;;8.93;6.13;;;8.00;74.00;;;;;;6222699;23;20004;-93
2021/05/07 03:40:45;;;;;;;8.98;6.38;;;8.10;74.00;;;;;;6222547;23;20027;-94
2021/05/07 03:43:11;;;;;;;8.10;6.10;;;8.20;73.80;;;;;;6221772;23;20367;-94
2021/05/07 03:45:37;;;;;;;7.78;5.68;;;8.30;73.80;;;;;;6222711;23;20010;-94
2021/05/07 03:48:14;;;;;;;8.02;5.55;;;8.40;73.60;;;;;;6221928;23;20478;-93
2021/05/07 03:50:40;;;;;;;6.72;5.22;;;8.50;73.40;;;;;;6222968;23;20087;-93
2021/05/07 03:53:09;;;;;;;8.68;6.15;;;8.70;73.30;;;;;;6224241;23;20011;-93
2021/05/07 03:55:35;;;;;;;9.70;6.18;;;8.80;73.60;;;;;;6224960;23;20442;-94
2021/05/07 03:58:00;;;;;;;8.95;5.85;;;9.00;72.70;;;;;;6222762;23;19996;-94
2021/05/07 04:00:26;;;;;;;9.85;6.15;;;9.10;72.50;;;;;;6224491;23;20027;-93
2021/05/07 04:02:52;;;;;;;7.78;6.85;;;9.20;72.20;;;;;;6223743;23;20356;-92
2021/05/07 04:05:18;;;;;;;8.00;6.10;;;9.40;72.10;;;;;;6225765;23;20036;-94
2021/05/07 04:07:44;;;;;;;10.02;5.80;;;9.60;71.80;;;;;;6223448;23;20004;-93
2021/05/07 04:10:19;;;;;;;7.47;5.78;;;9.70;71.40;;;;;;6226829;23;20008;-93
2021/05/07 04:15:15;;;;;;;8.00;6.05;;;9.90;70.20;;;;;;6253961;22;20083;-93
2021/05/07 04:17:42;;;;;;;6.45;5.05;;;10.00;69.80;;;;;;6228974;23;20010;-93
2021/05/07 04:20:09;;;;;;;9.77;5.60;;;10.10;69.60;;;;;;6255199;22;20065;-94
2021/05/07 04:22:35;;;;;;;7.50;5.57;;;10.20;69.40;;;;;;6230146;23;20008;-92
2021/05/07 04:25:00;;;;;;;8.82;6.05;;;10.30;69.20;;;;;;6229148;23;20082;-92
2021/05/07 04:27:26;;;;;;;9.10;6.70;;;10.50;69.00;;;;;;6228346;23;20062;-93
2021/05/07 04:29:53;;;;;;;8.52;5.95;;;10.60;68.70;;;;;;6230551;23;20007;-93
2021/05/07 04:32:19;;;;;;;7.72;5.80;;;10.80;68.20;;;;;;6232004;23;20301;-93
2021/05/07 04:34:45;;;;;;;11.50;7.22;;;10.90;67.70;;;;;;6231684;23;20008;-92
2021/05/07 04:37:10;;;;;;;9.55;6.43;;;11.00;67.00;;;;;;6227133;23;20011;-92
2021/05/07 04:39:36;;;;;;;8.68;6.45;;;11.10;66.50;;;;;;6250782;22;19997;-92
2021/05/07 04:42:02;;;;;;;10.57;6.15;;;11.20;66.40;;;;;;6223568;23;20065;-93
2021/05/07 04:44:28;;;;;;;8.60;6.03;;;11.20;66.10;;;;;;6223886;23;20075;-92
2021/05/07 04:46:54;;;;;;;12.23;6.32;;;11.30;65.70;;;;;;6224697;23;20000;-93
2021/05/07 04:49:19;;;;;;;8.88;5.95;;;11.30;65.50;;;;;;6226572;23;20007;-93
2021/05/07 04:51:45;;;;;;;8.50;5.85;;;11.30;65.50;;;;;;6234995;23;20063;-92
2021/05/07 04:54:11;;;;;;;11.88;7.22;;;11.30;65.50;;;;;;6232735;23;20004;-92
2021/05/07 04:56:37;;;;;;;9.65;6.60;;;11.40;65.00;;;;;;6230209;23;20039;-92
2021/05/07 04:59:03;;;;;;;9.15;6.70;;;11.50;65.10;;;;;;6225852;23;20101;-93
2021/05/07 05:01:29;;;;;;;10.40;6.85;;;11.60;65.10;;;;;;6231109;23;20008;-92
2021/05/07 05:03:55;;;;;;;10.20;6.30;;;11.70;64.80;;;;;;6235823;23;20027;-93
2021/05/07 05:06:26;;;;;;;10.02;6.10;;;11.70;64.10;;;;;;6238655;23;19992;-94
2021/05/07 05:09:04;;;;;;;8.07;4.97;;;11.80;64.20;;;;;;6233902;23;20038;-93
2021/05/07 05:11:29;;;;;;;9.88;5.90;;;12.00;64.10;;;;;;6234117;23;20000;-93
2021/05/07 05:13:58;;;;;;;7.03;4.53;;;12.10;63.70;;;;;;6201616;23;20460;-94
2021/05/07 05:16:24;;;;;;;6.13;4.60;;;12.20;63.30;;;;;;6205657;23;20089;-93
2021/05/07 05:18:53;;;;;;;6.40;4.43;;;12.40;62.70;;;;;;6206772;23;20076;-95
2021/05/07 05:21:21;;;;;;;6.05;4.60;;;12.50;62.20;;;;;;6209055;23;20017;-93
2021/05/07 05:23:48;;;;;;;10.32;4.82;;;12.60;62.20;;;;;;6209330;23;20011;-92
2021/05/07 05:26:18;;;;;;;7.93;6.13;;;12.80;62.00;;;;;;6232999;23;20047;-92
2021/05/07 05:28:44;;;;;;;9.35;4.97;;;12.90;61.50;;;;;;6205217;23;19997;-91
2021/05/07 05:31:13;;;;;;;8.80;6.00;;;13.10;61.10;;;;;;6206169;23;20011;-94
2021/05/07 05:33:39;;;;;;;6.53;4.50;;;13.20;60.50;;;;;;6207492;23;20000;-93
2021/05/07 05:36:06;;;;;;;7.97;4.53;;;13.30;60.20;;;;;;6208404;23;20001;-94
2021/05/07 05:38:45;;;;;;;6.30;4.53;;;13.50;59.90;;;;;;6204373;23;20027;-93
2021/05/07 05:41:18;;;;;;;9.13;7.05;;;13.70;59.40;;;;;;6211060;23;20005;-93
2021/05/07 05:43:48;;;;;;;7.68;4.93;;;13.80;59.10;;;;;;6232562;23;20000;-93
2021/05/07 05:46:16;;;;;;;6.05;4.25;;;14.00;58.90;;;;;;6205861;23;20001;-93
2021/05/07 05:48:42;;;;;;;5.45;4.47;;;14.20;58.50;;;;;;6206765;23;20001;-93
2021/05/07 05:51:11;;;;;;;9.80;4.95;;;14.40;58.00;;;;;;6233435;23;20004;-93
2021/05/07 05:53:37;;;;;;;6.97;4.93;;;14.50;57.50;;;;;;6208326;23;20015;-92
2021/05/07 05:56:04;;;;;;;8.75;4.93;;;14.70;56.70;;;;;;6205564;23;20035;-94
2021/05/07 05:58:32;;;;;;;13.23;5.50;;;14.80;56.30;;;;;;6204980;23;20023;-93
2021/05/07 06:04:38;;;;;;;15.30;7.22;;;15.10;55.50;;;;;;6109820;23;20017;-93
2021/05/07 06:07:15;;;;;;;18.48;7.80;;;15.20;55.30;;;;;;6169854;23;20465;-94
2021/05/07 06:09:49;;;;;;;22.98;8.93;;;15.30;54.70;;;;;;6174288;23;20064;-93
2021/05/07 06:12:18;;;;;;;21.67;8.40;;;15.50;53.90;;;;;;6146860;23;20013;-94
2021/05/07 06:14:59;;;;;;;;;;;;;;;;;;;;;
2021/05/07 06:17:35;;;;;;;26.45;7.57;;;15.80;52.80;;;;;;6158914;23;20033;-94
2021/05/07 06:26:34;;;;;;;26.75;7.93;;;16.30;51.30;;;;;;6162177;23;20142;-94
2021/05/07 06:29:55;;;;;;;20.95;8.27;;;16.40;51.10;;;;;;6134733;23;20005;-94
2021/05/07 06:32:26;;;;;;;23.40;8.93;;;16.50;50.10;;;;;;6179360;23;20020;-94
2021/05/07 06:35:20;;;;;;;23.88;10.93;;;16.70;51.10;;;;;;6205942;23;20042;-93
2021/05/07 06:37:49;;;;;;;30.17;10.30;;;16.80;50.60;;;;;;6196875;23;20004;-94
2021/05/07 06:40:15;;;;;;;23.02;8.40;;;16.90;50.60;;;;;;6228506;23;20044;-94
2021/05/07 06:42:46;;;;;;;23.90;9.52;;;17.00;50.40;;;;;;6201632;23;20011;-93
2021/05/07 06:45:12;;;;;;;26.90;8.45;;;17.10;49.90;;;;;;6200933;23;20365;-94
2021/05/07 06:47:38;;;;;;;20.48;8.30;;;17.20;49.70;;;;;;6201356;23;20001;-93
2021/05/07 06:50:06;;;;;;;16.27;6.93;;;17.30;49.40;;;;;;6198651;23;20004;-93
2021/05/07 06:52:32;;;;;;;18.02;7.43;;;17.40;49.10;;;;;;6198951;23;19997;-94
2021/05/07 06:54:59;;;;;;;14.73;6.13;;;17.50;48.80;;;;;;6201746;23;20031;-93
2021/05/07 06:57:25;;;;;;;16.73;6.93;;;17.60;48.90;;;;;;6203463;23;20068;-94
2021/05/07 06:59:51;;;;;;;13.90;6.47;;;17.70;48.50;;;;;;6202421;23;20028;-93
2021/05/07 07:02:18;;;;;;;10.32;5.25;;;17.90;48.80;;;;;;6204012;23;20467;-94
2021/05/07 07:04:46;;;;;;;11.90;5.55;;;18.00;48.60;;;;;;6205560;23;20008;-94
2021/05/07 07:07:23;;;;;;;7.55;4.15;;;18.20;47.70;;;;;;6210701;23;20087;-93
2021/05/07 07:09:51;;;;;;;7.22;3.85;;;18.40;47.60;;;;;;6206804;23;20020;-94
2021/05/07 07:12:18;;;;;;;4.10;2.70;;;18.60;47.30;;;;;;6205725;23;20036;-93
2021/05/07 07:14:46;;;;;;;3.67;2.75;;;18.70;46.70;;;;;;6205204;23;20012;-95
2021/05/07 07:17:16;;;;;;;10.10;3.47;;;18.90;46.40;;;;;;6207402;23;19989;-94
2021/05/07 07:19:42;;;;;;;6.10;2.67;;;19.10;44.60;;;;;;6230244;23;19993;-93
2021/05/07 07:22:08;;;;;;;7.00;3.13;;;19.10;43.30;;;;;;6205528;23;20095;-93
2021/05/07 07:24:35;;;;;;;9.80;4.38;;;19.20;43.10;;;;;;6201359;23;20084;-94
2021/05/07 07:27:06;;;;;;;5.05;3.13;;;19.30;42.50;;;;;;6202045;23;20011;-94
2021/05/07 07:29:35;;;;;;;5.43;2.72;;;19.40;41.40;;;;;;6180500;23;20449;-94
2021/05/07 07:32:00;;;;;;;3.75;2.35;;;19.50;42.10;;;;;;6205317;23;20019;-94
2021/05/07 07:34:26;;;;;;;7.85;2.67;;;19.70;41.80;;;;;;6201232;23;20476;-93
2021/05/07 07:36:52;;;;;;;4.40;1.95;;;19.90;41.00;;;;;;6202873;23;20001;-94
2021/05/07 07:39:19;;;;;;;2.95;1.88;;;20.00;40.40;;;;;;6204819;23;20055;-94
2021/05/07 07:41:49;;;;;;;2.88;1.95;;;20.10;40.40;;;;;;6205556;23;20012;-94
2021/05/07 07:44:15;;;;;;;2.85;1.50;;;20.20;39.20;;;;;;6203937;23;20023;-93
2021/05/07 07:46:44;;;;;;;2.38;1.50;;;20.20;39.10;;;;;;6231102;23;20004;-93
2021/05/07 07:49:13;;;;;;;2.63;1.40;;;20.20;39.10;;;;;;6204633;23;20008;-92
2021/05/07 07:52:09;;;;;;;1.88;1.65;;;20.20;38.90;;;;;;6202980;23;20005;-93
2021/05/07 07:54:57;;;;;;;;;;;;;;;;;;;;;
2021/05/07 07:57:23;;;;;;;2.38;1.50;;;20.50;38.20;;;;;;6233524;23;20019;-93
2021/05/07 08:03:00;;;;;;;1.52;1.42;;;20.70;37.40;;;;;;6231461;23;20012;-93
2021/05/07 08:05:26;;;;;;;2.85;1.85;;;20.70;37.00;;;;;;6205179;23;19997;-93
2021/05/07 08:07:57;;;;;;;2.30;1.70;;;20.60;36.20;;;;;;6206132;23;20031;-93
2021/05/07 08:10:23;;;;;;;1.77;1.35;;;20.60;36.40;;;;;;6200772;23;20005;-93
2021/05/07 08:12:51;;;;;;;1.67;1.30;;;20.70;36.20;;;;;;6212252;23;20076;-93
2021/05/07 08:16:10;;;;;;;1.13;1.13;;;20.70;35.80;;;;;;6228123;23;20005;-93
2021/05/07 08:18:36;;;;;;;1.67;1.33;;;20.80;35.40;;;;;;6255244;22;20083;-92
2021/05/07 08:21:04;;;;;;;1.50;1.40;;;20.80;35.50;;;;;;6261666;22;20047;-93
2021/05/07 08:23:30;;;;;;;1.73;1.33;;;20.90;35.80;;;;;;6260926;23;20007;-93
2021/05/07 08:25:56;;;;;;;1.63;1.52;;;21.00;35.40;;;;;;6260074;22;20011;-93
2021/05/07 08:28:22;;;;;;;1.58;1.20;;;21.10;35.40;;;;;;6260139;23;20011;-93
2021/05/07 08:30:48;;;;;;;1.52;1.20;;;21.20;35.60;;;;;;6258164;22;20011;-92
2021/05/07 08:33:17;;;;;;;5.57;1.33;;;21.30;35.20;;;;;;6254751;22;20034;-93
2021/05/07 08:35:42;;;;;;;3.35;1.23;;;21.50;35.60;;;;;;6258464;22;19996;-93
2021/05/07 08:38:09;;;;;;;2.15;1.15;;;21.60;34.60;;;;;;6258078;23;20079;-93
2021/05/07 08:44:06;;;;;;;2.83;2.38;;;21.80;33.90;;;;;;6254103;23;20015;-93
2021/05/07 08:56:55;;;;;;;4.82;2.20;;;21.60;33.10;;;;;;6105408;23;20398;-94
2021/05/07 09:02:48;;;;;;;2.08;1.70;;;21.60;31.20;;;;;;6104263;23;20442;-94
2021/05/07 09:08:35;;;;;;;2.33;1.55;;;21.60;32.90;;;;;;6105359;23;20089;-92
2021/05/07 09:11:01;;;;;;;2.50;1.88;;;21.70;33.10;;;;;;6077497;23;20007;-93
2021/05/07 09:13:31;;;;;;;1.88;1.60;;;21.80;33.20;;;;;;6079006;23;20046;-93
2021/05/07 09:16:15;;;;;;;3.88;2.63;;;21.80;32.50;;;;;;6088564;23;20017;-93
2021/05/07 09:18:49;;;;;;;2.30;1.88;;;21.80;32.80;;;;;;6088888;23;20006;-92
2021/05/07 09:21:15;;;;;;;2.25;1.33;;;21.90;33.00;;;;;;6076749;23;20022;-93
2021/05/07 09:23:53;;;;;;;1.25;1.00;;;22.00;33.00;;;;;;6079165;23;20010;-94
2021/05/07 09:26:19;;;;;;;2.25;1.33;;;22.20;32.70;;;;;;6179786;23;20008;-93
2021/05/07 09:29:02;;;;;;;1.98;1.60;;;22.30;32.30;;;;;;6198058;23;19997;-92
2021/05/07 09:31:31;;;;;;;2.22;2.03;;;22.40;32.10;;;;;;6199188;23;20012;-93
2021/05/07 09:34:05;;;;;;;1.65;1.27;;;22.40;31.70;;;;;;6198092;23;20015;-94
2021/05/07 09:36:32;;;;;;;2.13;1.48;;;22.30;31.50;;;;;;6201648;23;20005;-93
2021/05/07 09:39:18;;;;;;;1.83;1.38;;;22.20;31.70;;;;;;6198028;23;20000;-92
2021/05/07 09:41:46;;;;;;;3.35;1.25;;;22.20;31.90;;;;;;6218977;23;20424;-94
2021/05/07 09:44:35;;;;;;;2.03;1.65;;;22.20;31.80;;;;;;6196947;23;20001;-94
2021/05/07 09:47:15;;;;;;;2.10;1.60;;;22.30;31.40;;;;;;6223638;23;20397;-94
2021/05/07 09:49:44;;;;;;;0.90;0.90;;;22.40;31.20;;;;;;6197826;23;20004;-94
2021/05/07 09:52:13;;;;;;;1.08;0.98;;;22.50;31.70;;;;;;6199170;23;20008;-93
2021/05/07 09:54:50;;;;;;;3.65;1.67;;;22.60;31.20;;;;;;6203409;23;20005;-93
2021/05/07 09:57:20;;;;;;;0.98;0.98;;;22.70;31.00;;;;;;6206990;23;20005;-93
2021/05/07 09:59:47;;;;;;;1.75;1.42;;;22.90;31.20;;;;;;6205535;23;20004;-93
2021/05/07 10:02:13;;;;;;;3.15;2.22;;;23.00;31.00;;;;;;6203595;23;19996;-92
2021/05/07 10:04:42;;;;;;;2.15;1.63;;;23.10;30.80;;;;;;6233037;23;20013;-95
2021/05/07 10:07:08;;;;;;;4.22;2.45;;;23.20;30.90;;;;;;6201659;23;20012;-92
2021/05/07 10:09:37;;;;;;;2.22;1.80;;;23.20;31.10;;;;;;6200265;23;20001;-93
2021/05/07 10:12:09;;;;;;;8.48;2.08;;;23.20;30.30;;;;;;6196439;23;20423;-94
2021/05/07 10:14:47;;;;;;;1.33;1.23;;;23.00;29.90;;;;;;6198968;23;20095;-91
2021/05/07 10:17:13;;;;;;;1.60;1.42;;;22.80;29.40;;;;;;6190992;23;20001;-91
2021/05/07 10:19:45;;;;;;;1.38;1.30;;;22.70;30.30;;;;;;6216933;23;20039;-90
2021/05/07 10:22:12;;;;;;;2.70;1.53;;;22.70;30.00;;;;;;6193020;23;20130;-93
2021/05/07 10:24:39;;;;;;;2.60;1.73;;;22.60;30.10;;;;;;6192804;23;20008;-90
2021/05/07 10:27:16;;;;;;;2.00;1.50;;;22.40;30.20;;;;;;6192082;23;20043;-90
2021/05/07 10:30:03;;;;;;;1.52;1.38;;;22.30;30.40;;;;;;6191011;23;20008;-93
2021/05/07 10:32:38;;;;;;;1.85;1.52;;;22.30;30.00;;;;;;6190729;23;20039;-92
2021/05/07 10:35:05;;;;;;;3.17;1.90;;;22.30;30.40;;;;;;6191017;23;20008;-91
2021/05/07 10:37:44;;;;;;;3.90;2.67;;;22.30;30.70;;;;;;6190407;23;20397;-92
2021/05/07 10:40:21;;;;;;;3.67;2.50;;;22.30;30.00;;;;;;6191325;23;20020;-92
2021/05/07 10:42:58;;;;;;;4.55;2.80;;;22.40;30.90;;;;;;6191210;23;20001;-92
2021/05/07 10:45:48;;;;;;;6.30;2.75;;;22.60;30.80;;;;;;6217988;23;20000;-91
2021/05/07 10:48:16;;;;;;;6.30;2.30;;;22.80;30.30;;;;;;6200472;23;20008;-92
2021/05/07 10:50:49;;;;;;;3.17;1.80;;;22.80;30.70;;;;;;6191609;23;20012;-94
2021/05/07 10:53:33;;;;;;;3.22;1.67;;;22.80;30.50;;;;;;6190977;23;20415;-92
2021/05/07 10:56:20;;;;;;;;;;;22.80;30.20;;;;;;6191466;23;20008;-91
2021/05/07 10:58:50;;;;;;;1.50;1.40;;;22.70;30.30;;;;;;6190683;23;19906;-90
2021/05/07 11:01:26;;;;;;;1.40;1.23;;;22.60;30.50;;;;;;6195205;23;20033;-91
2021/05/07 11:04:03;;;;;;;1.77;1.40;;;22.50;30.60;;;;;;6195133;23;19997;-90
2021/05/07 11:06:47;;;;;;;2.10;1.67;;;22.40;30.80;;;;;;6191499;23;20032;-92
2021/05/07 11:09:31;;;;;;;1.92;1.65;;;22.40;30.50;;;;;;6192422;23;20043;-90
2021/05/07 11:12:05;;;;;;;2.55;1.33;;;22.30;30.70;;;;;;6195130;22;20467;-91
2021/05/07 11:14:43;;;;;;;1.73;1.30;;;22.20;30.50;;;;;;6246936;23;20285;-94
2021/05/07 11:17:19;;;;;;;2.67;1.92;;;22.10;30.80;;;;;;6248911;23;20391;-93
2021/05/07 11:19:50;;;;;;;2.58;1.58;;;22.10;30.70;;;;;;6246511;22;20000;-93
2021/05/07 11:22:24;;;;;;;2.70;1.95;;;22.10;30.80;;;;;;6247352;23;20407;-93
2021/05/07 11:24:50;;;;;;;4.95;2.45;;;22.00;30.80;;;;;;6223705;23;20004;-91
2021/05/07 11:27:26;;;;;;;2.20;1.70;;;21.80;30.80;;;;;;6248678;22;20387;-94
2021/05/07 11:30:13;;;;;;;1.50;1.40;;;21.60;30.90;;;;;;6246820;22;20007;-91
2021/05/07 11:32:40;;;;;;;4.03;1.50;;;21.30;31.10;;;;;;6272073;22;20008;-93
2021/05/07 11:35:09;;;;;;;1.77;1.20;;;21.10;31.70;;;;;;6248331;22;20120;-94
2021/05/07 11:37:38;;;;;;;2.35;2.15;;;20.90;32.00;;;;;;6248817;22;20501;-95
2021/05/07 11:40:05;;;;;;;1.98;1.60;;;20.70;32.20;;;;;;6252965;22;20424;-94
2021/05/07 11:42:35;;;;;;;3.08;1.70;;;20.50;32.60;;;;;;6249773;22;19992;-92
2021/05/07 11:45:07;;;;;;;2.10;1.50;;;20.30;32.90;;;;;;6249596;22;20027;-94
2021/05/07 11:47:34;;;;;;;8.57;1.70;;;20.10;33.30;;;;;;6248207;23;20039;-93
2021/05/07 11:50:00;;;;;;;2.55;2.10;;;20.00;33.50;;;;;;6246711;22;20004;-94
2021/05/07 11:52:33;;;;;;;2.30;1.67;;;19.90;34.70;;;;;;6248722;22;20101;-94
2021/05/07 11:54:59;;;;;;;8.77;2.10;;;19.70;34.90;;;;;;6248423;22;20000;-95
2021/05/07 11:57:27;;;;;;;3.50;1.33;;;19.60;35.50;;;;;;6247664;22;20022;-96
2021/05/07 11:59:52;;;;;;;2.28;1.45;;;19.50;35.90;;;;;;6246772;22;20004;-94
2021/05/07 12:02:29;;;;;;;1.98;1.50;;;19.30;36.30;;;;;;6247546;22;20091;-94
2021/05/07 12:04:55;;;;;;;2.75;1.60;;;19.30;36.80;;;;;;6249622;23;20007;-95
2021/05/07 12:07:36;;;;;;;2.15;1.85;;;19.20;36.90;;;;;;6248802;22;20028;-94
2021/05/07 12:10:03;;;;;;;4.38;2.50;;;19.10;37.20;;;;;;6257287;23;20043;-94
2021/05/07 12:12:40;;;;;;;2.22;1.52;;;19.00;37.30;;;;;;6257622;22;20047;-94
2021/05/07 12:15:11;;;;;;;4.55;1.27;;;18.90;37.60;;;;;;6255613;23;20011;-93
2021/05/07 12:17:45;;;;;;;1.50;1.40;;;18.90;37.50;;;;;;6257541;23;20000;-94
2021/05/07 12:20:19;;;;;;;2.33;1.40;;;18.80;37.60;;;;;;6251580;23;20020;-94
2021/05/07 12:22:46;;;;;;;;;;;18.80;37.80;;;;;;6251312;23;20008;-93
2021/05/07 12:25:17;;;;;;;1.77;1.60;;;18.90;38.10;;;;;;6253417;22;19900;-93
2021/05/07 12:27:44;;;;;;;1.60;1.50;;;18.90;38.00;;;;;;6252831;22;20003;-93
2021/05/07 12:30:17;;;;;;;2.17;1.67;;;19.00;38.20;;;;;;6248814;22;20375;-94
2021/05/07 12:32:51;;;;;;;3.78;2.83;;;19.30;38.30;;;;;;6246937;23;20004;-93
2021/05/07 12:35:17;;;;;;;7.57;4.97;;;19.50;38.40;;;;;;6249780;23;20075;-93
2021/05/07 12:37:45;;;;;;;6.43;3.92;;;20.00;38.70;;;;;;6247769;22;20008;-94
2021/05/07 12:40:13;;;;;;;6.68;3.63;;;20.40;38.20;;;;;;6254508;22;20000;-93
2021/05/07 12:42:39;;;;;;;6.63;3.85;;;20.70;37.60;;;;;;6253572;22;20023;-93
2021/05/07 12:45:05;;;;;;;4.47;3.25;;;20.90;36.90;;;;;;6255152;22;19996;-93
2021/05/07 12:47:34;;;;;;;4.32;3.47;;;20.90;36.60;;;;;;6255847;22;20012;-93
2021/05/07 12:50:00;;;;;;;6.63;3.50;;;20.80;36.50;;;;;;6252377;22;20392;-93
2021/05/07 12:52:25;;;;;;;5.30;3.30;;;20.70;36.50;;;;;;6249527;22;20000;-93
2021/05/07 12:54:51;;;;;;;8.02;3.20;;;20.60;36.50;;;;;;6252563;22;20023;-94
2021/05/07 12:57:17;;;;;;;4.80;2.60;;;20.50;36.60;;;;;;6253381;22;20023;-94
2021/05/07 12:59:43;;;;;;;2.72;1.65;;;20.30;36.50;;;;;;6252290;22;20355;-93
2021/05/07 13:02:09;;;;;;;2.15;1.58;;;20.20;36.60;;;;;;6253133;22;20091;-94
2021/05/07 13:04:37;;;;;;;1.45;1.30;;;20.10;36.60;;;;;;6253923;22;20091;-94
2021/05/07 13:07:03;;;;;;;2.95;1.70;;;20.00;36.80;;;;;;6255015;22;20316;-93
2021/05/07 13:09:29;;;;;;;2.70;1.60;;;19.80;36.90;;;;;;6250495;22;20000;-93
2021/05/07 13:11:54;;;;;;;2.40;1.42;;;19.70;37.10;;;;;;6252032;22;20051;-94
2021/05/07 13:14:20;;;;;;;1.27;1.10;;;19.60;37.40;;;;;;6257585;23;20059;-92
2021/05/07 13:16:46;;;;;;;1.85;1.45;;;19.60;37.70;;;;;;6252208;22;19996;-95
2021/05/07 13:19:12;;;;;;;1.83;1.30;;;19.50;38.40;;;;;;6257104;22;20265;-93
2021/05/07 13:21:38;;;;;;;2.95;1.65;;;19.60;38.00;;;;;;6259303;22;20004;-95
2021/05/07 13:24:04;;;;;;;1.70;1.48;;;19.50;38.00;;;;;;6256327;22;20050;-95
2021/05/07 13:26:29;;;;;;;1.73;1.40;;;19.50;38.00;;;;;;6253329;22;20004;-95
2021/05/07 13:28:59;;;;;;;2.30;1.90;;;19.50;38.80;;;;;;6253384;22;20010;-93
2021/05/07 13:31:26;;;;;;;1.70;1.50;;;19.60;38.40;;;;;;6251959;22;20008;-94
2021/05/07 13:33:51;;;;;;;2.75;1.88;;;19.70;38.70;;;;;;6257335;22;20046;-94
2021/05/07 13:36:17;;;;;;;2.47;1.95;;;19.90;38.90;;;;;;6254303;22;20046;-95